createdAt,value
2022-09-15T00:00:12.616Z,100563.81
2022-09-15T00:02:39.432Z,100558.03
2022-09-15T00:05:06.307Z,100560.97
2022-09-15T00:07:32.905Z,100560.03
2022-09-15T00:09:59.642Z,100560.44
2022-09-15T00:12:27.668Z,100561.44
2022-09-15T00:14:54.508Z,100561.91
2022-09-15T00:17:21.442Z,100561.47
2022-09-15T00:19:48.443Z,100560.56
2022-09-15T00:22:15.302Z,100558.09
2022-09-15T00:24:42.195Z,100555.97
2022-09-15T00:27:08.914Z,100560.44
2022-09-15T00:29:36.519Z,100561.81
2022-09-15T00:32:03.826Z,100561.97
2022-09-15T00:34:30.383Z,100560.44
2022-09-15T00:36:57.108Z,100556.47
2022-09-15T00:39:23.690Z,100556.88
2022-09-15T00:41:50.402Z,100553.03
2022-09-15T00:44:17.251Z,100556.94
2022-09-15T00:47:04.258Z,100571.34
2022-09-15T00:49:39.155Z,100563.44
2022-09-15T00:52:14.315Z,100566.22
2022-09-15T00:54:55.152Z,100567.84
2022-09-15T00:57:27.559Z,100561.03
2022-09-15T00:59:56.747Z,100563.44
2022-09-15T01:02:27.229Z,100560.72
2022-09-15T01:04:58.397Z,100560.16
2022-09-15T01:07:41.493Z,100558.63
2022-09-15T01:10:14.408Z,100569.25
2022-09-15T01:12:41.932Z,100564.13
2022-09-15T01:15:09.298Z,100559.00
2022-09-15T01:18:16.737Z,100561.06
2022-09-15T01:21:05.033Z,100556.31
2022-09-15T01:24:00.236Z,100553.53
2022-09-15T01:26:43.182Z,100552.84
2022-09-15T01:29:31.457Z,100553.16
2022-09-15T01:32:27.392Z,100534.72
2022-09-15T01:35:22.122Z,100539.38
2022-09-15T01:38:04.489Z,100547.66
2022-09-15T01:40:37.679Z,100543.25
2022-09-15T01:43:06.604Z,100535.78
2022-09-15T01:45:35.357Z,100533.75
2022-09-15T01:48:05.409Z,100540.03
2022-09-15T01:50:44.606Z,100539.19
2022-09-15T01:53:17.732Z,100533.25
2022-09-15T01:55:58.472Z,100530.41
2022-09-15T01:58:25.254Z,100547.22
2022-09-15T02:00:58.886Z,100546.94
2022-09-15T02:03:29.820Z,100558.19
2022-09-15T02:06:02.926Z,100542.09
2022-09-15T02:08:47.622Z,100543.16
2022-09-15T02:11:19.558Z,100548.50
2022-09-15T02:14:11.365Z,100546.97
2022-09-15T02:16:41.941Z,100537.75
2022-09-15T02:19:41.931Z,100545.63
2022-09-15T02:22:28.189Z,100543.84
2022-09-15T02:25:03.276Z,100548.72
2022-09-15T02:27:41.674Z,100541.94
2022-09-15T02:30:12.479Z,100551.00
2022-09-15T02:32:47.265Z,100557.31
2022-09-15T02:35:16.895Z,100545.63
2022-09-15T02:37:44.432Z,100552.50
2022-09-15T02:40:11.462Z,100550.53
2022-09-15T02:42:39.290Z,100556.53
2022-09-15T02:45:06.566Z,100553.69
2022-09-15T02:47:35.978Z,100559.13
2022-09-15T02:50:02.691Z,100561.97
2022-09-15T02:52:29.447Z,100554.69
2022-09-15T02:54:56.186Z,100559.50
2022-09-15T02:57:23.596Z,100543.78
2022-09-15T03:00:08.757Z,100553.91
2022-09-15T03:02:35.644Z,100546.78
2022-09-15T03:05:02.731Z,100546.63
2022-09-15T03:07:30.195Z,100548.66
2022-09-15T03:09:56.829Z,100549.66
2022-09-15T03:12:23.679Z,100555.75
2022-09-15T03:14:50.713Z,100553.06
2022-09-15T03:17:18.902Z,100557.09
2022-09-15T03:19:45.588Z,100553.22
2022-09-15T03:22:15.360Z,100565.66
2022-09-15T03:24:42.703Z,100562.00
2022-09-15T03:27:09.446Z,100557.56
2022-09-15T03:29:36.450Z,100565.69
2022-09-15T03:32:03.120Z,100572.94
2022-09-15T03:34:29.678Z,100569.16
2022-09-15T03:36:56.227Z,100588.69
2022-09-15T03:39:22.892Z,100581.59
2022-09-15T03:41:49.730Z,100576.63
2022-09-15T03:44:17.378Z,100595.72
2022-09-15T03:46:44.048Z,100599.13
2022-09-15T03:49:10.658Z,100585.59
2022-09-15T03:51:37.221Z,100599.22
2022-09-15T03:54:03.934Z,100606.47
2022-09-15T03:56:32.861Z,100603.41
2022-09-15T03:59:05.608Z,100601.50
2022-09-15T04:01:33.019Z,100585.47
2022-09-15T04:03:59.909Z,100589.09
2022-09-15T04:06:26.813Z,100590.03
2022-09-15T04:08:54.641Z,100585.94
2022-09-15T04:11:23.177Z,100581.19
2022-09-15T04:13:50.436Z,100583.34
2022-09-15T04:16:19.659Z,100593.25
2022-09-15T04:18:46.540Z,100581.88
2022-09-15T04:21:16.234Z,100584.66
2022-09-15T04:23:44.237Z,100580.28
2022-09-15T04:26:19.522Z,100585.84
2022-09-15T04:28:46.090Z,100589.72
2022-09-15T04:31:15.044Z,100593.03
2022-09-15T04:33:43.491Z,100587.91
2022-09-15T04:36:21.028Z,100579.16
2022-09-15T04:38:48.343Z,100579.84
2022-09-15T04:41:15.383Z,100578.69
2022-09-15T04:43:43.361Z,100577.94
2022-09-15T04:46:11.025Z,100578.41
2022-09-15T04:48:37.914Z,100574.75
2022-09-15T04:51:07.203Z,100574.75
2022-09-15T04:53:35.184Z,100570.25
2022-09-15T04:56:07.674Z,100575.38
2022-09-15T04:58:58.233Z,100560.09
2022-09-15T05:01:30.400Z,100570.84
2022-09-15T05:03:57.335Z,100569.75
2022-09-15T05:06:27.346Z,100570.41
2022-09-15T05:08:56.599Z,100572.22
2022-09-15T05:11:24.960Z,100570.13
2022-09-15T05:13:51.715Z,100574.88
2022-09-15T05:16:22.030Z,100563.91
2022-09-15T05:18:50.952Z,100579.94
2022-09-15T05:21:20.485Z,100582.47
2022-09-15T05:23:48.078Z,100577.03
2022-09-15T05:26:17.653Z,100575.63
2022-09-15T05:28:44.966Z,100583.47
2022-09-15T05:31:24.187Z,100595.75
2022-09-15T05:33:53.148Z,100583.41
2022-09-15T05:36:23.789Z,100592.78
2022-09-15T05:38:51.663Z,100594.63
2022-09-15T05:41:19.301Z,100600.78
2022-09-15T05:43:47.991Z,100603.84
2022-09-15T05:46:16.286Z,100612.72
2022-09-15T05:48:43.011Z,100612.88
2022-09-15T05:51:09.614Z,100608.38
2022-09-15T05:53:37.101Z,100611.31
2022-09-15T05:56:10.702Z,100611.31
2022-09-15T05:58:38.998Z,100617.03
2022-09-15T06:01:11.596Z,100607.69
2022-09-15T06:03:38.146Z,100618.84
2022-09-15T06:06:06.330Z,100624.47
2022-09-15T06:08:34.820Z,100623.00
2022-09-15T06:11:06.942Z,100622.00
2022-09-15T06:13:35.519Z,100624.53
2022-09-15T06:16:07.119Z,100620.97
2022-09-15T06:18:36.237Z,100628.56
2022-09-15T06:21:09.222Z,100629.03
2022-09-15T06:23:37.045Z,100633.66
2022-09-15T06:26:12.737Z,100641.09
2022-09-15T06:28:42.250Z,100646.50
2022-09-15T06:31:13.731Z,100638.88
2022-09-15T06:33:45.769Z,100640.94
2022-09-15T06:36:13.785Z,100643.47
2022-09-15T06:38:41.380Z,100647.63
2022-09-15T06:41:09.167Z,100650.78
2022-09-15T06:43:36.443Z,100636.88
2022-09-15T06:46:09.214Z,100653.69
2022-09-15T06:48:36.984Z,100659.06
2022-09-15T06:51:04.884Z,100651.97
2022-09-15T06:53:33.148Z,100654.25
2022-09-15T06:56:03.707Z,100660.69
2022-09-15T06:58:31.189Z,100657.91
2022-09-15T07:01:03.401Z,100654.50
2022-09-15T07:03:30.710Z,100662.53
2022-09-15T07:05:57.507Z,100678.38
2022-09-15T07:08:24.174Z,100676.53
2022-09-15T07:10:50.790Z,100664.13
2022-09-15T07:13:17.737Z,100667.78
2022-09-15T07:15:53.445Z,100680.88
2022-09-15T07:18:20.266Z,100681.31
2022-09-15T07:20:47.232Z,100688.44
2022-09-15T07:23:16.184Z,100679.16
2022-09-15T07:25:45.195Z,100672.81
2022-09-15T07:28:15.231Z,100683.31
2022-09-15T07:30:43.744Z,100679.22
2022-09-15T07:33:13.398Z,100673.00
2022-09-15T07:35:44.347Z,100692.47
2022-09-15T07:38:12.894Z,100687.00
2022-09-15T07:40:40.178Z,100670.44
2022-09-15T07:43:06.756Z,100676.56
2022-09-15T07:45:35.570Z,100684.81
2022-09-15T07:48:02.642Z,100688.66
2022-09-15T07:50:29.663Z,100688.56
2022-09-15T07:53:00.423Z,100696.00
2022-09-15T07:55:27.911Z,100694.84
2022-09-15T07:57:59.390Z,100706.00
2022-09-15T08:00:26.721Z,100687.97
2022-09-15T08:02:53.845Z,100694.69
2022-09-15T08:05:20.695Z,100699.03
2022-09-15T08:07:47.642Z,100707.03
2022-09-15T08:10:15.773Z,100700.59
2022-09-15T08:12:42.494Z,100700.59
2022-09-15T08:15:09.608Z,100710.06
2022-09-15T08:17:36.338Z,100710.13
2022-09-15T08:20:04.167Z,100722.13
2022-09-15T08:22:30.853Z,100721.59
2022-09-15T08:24:57.691Z,100733.91
2022-09-15T08:27:24.523Z,100733.91
2022-09-15T08:29:51.903Z,100728.28
2022-09-15T08:32:19.002Z,100732.47
2022-09-15T08:34:45.801Z,100729.88
2022-09-15T08:37:12.702Z,100728.38
2022-09-15T08:39:39.383Z,100732.56
2022-09-15T08:42:06.538Z,100735.84
2022-09-15T08:44:51.983Z,100740.13
2022-09-15T08:47:31.942Z,100744.84
2022-09-15T08:50:05.490Z,100742.38
2022-09-15T08:52:35.499Z,100749.03
2022-09-15T08:55:25.333Z,100754.00
2022-09-15T08:57:55.799Z,100758.06
2022-09-15T09:00:26.974Z,100760.09
2022-09-15T09:03:31.166Z,100766.25
2022-09-15T09:06:19.952Z,100757.66
2022-09-15T09:09:00.198Z,100755.84
2022-09-15T09:11:51.939Z,100746.13
2022-09-15T09:14:36.938Z,100760.56
2022-09-15T09:17:18.618Z,100765.38
2022-09-15T09:19:55.695Z,100758.03
2022-09-15T09:22:31.677Z,100763.34
2022-09-15T09:25:05.889Z,100768.09
2022-09-15T09:27:43.433Z,100768.47
2022-09-15T09:30:22.741Z,100766.97
2022-09-15T09:33:04.933Z,100772.16
2022-09-15T09:35:43.751Z,100765.47
2022-09-15T09:38:12.482Z,100777.72
2022-09-15T09:40:43.114Z,100773.19
2022-09-15T09:43:10.880Z,100787.25
2022-09-15T09:45:37.800Z,100769.81
2022-09-15T09:48:20.403Z,100794.19
2022-09-15T09:50:48.006Z,100799.81
2022-09-15T09:53:34.286Z,100777.22
2022-09-15T09:56:17.031Z,100784.56
2022-09-15T09:58:44.816Z,100793.09
2022-09-15T10:01:20.002Z,100796.88
2022-09-15T10:03:47.455Z,100790.59
2022-09-15T10:06:22.125Z,100780.16
2022-09-15T10:08:53.445Z,100787.59
2022-09-15T10:11:20.234Z,100788.47
2022-09-15T10:13:53.398Z,100787.31
2022-09-15T10:16:21.398Z,100785.66
2022-09-15T10:18:54.291Z,100797.28
2022-09-15T10:21:25.156Z,100787.63
2022-09-15T10:23:52.276Z,100783.28
2022-09-15T10:26:22.433Z,100796.06
2022-09-15T10:29:13.247Z,100803.38
2022-09-15T10:31:41.075Z,100792.72
2022-09-15T10:34:27.809Z,100799.50
2022-09-15T10:37:13.270Z,100804.91
2022-09-15T10:39:52.699Z,100801.91
2022-09-15T10:42:32.450Z,100783.38
2022-09-15T10:45:24.077Z,100786.88
2022-09-15T10:48:18.611Z,100789.34
2022-09-15T10:50:55.053Z,100783.47
2022-09-15T10:53:37.196Z,100787.09
2022-09-15T10:56:19.688Z,100779.16
2022-09-15T10:59:00.582Z,100776.25
2022-09-15T11:01:30.244Z,100785.69
2022-09-15T11:04:34.068Z,100785.22
2022-09-15T11:07:09.798Z,100781.41
2022-09-15T11:10:02.224Z,100785.56
2022-09-15T11:12:55.425Z,100786.63
2022-09-15T11:15:30.967Z,100777.09
2022-09-15T11:18:19.495Z,100795.53
2022-09-15T11:21:07.986Z,100792.53
2022-09-15T11:23:40.140Z,100795.50
2022-09-15T11:26:19.498Z,100800.53
2022-09-15T11:28:57.948Z,100792.34
2022-09-15T11:31:34.400Z,100794.59
2022-09-15T11:34:14.848Z,100776.84
2022-09-15T11:36:55.279Z,100793.53
2022-09-15T11:39:36.576Z,100789.53
2022-09-15T11:42:44.893Z,100794.06
2022-09-15T11:45:20.323Z,100781.09
2022-09-15T11:47:52.789Z,100781.91
2022-09-15T11:50:24.873Z,100782.56
2022-09-15T11:53:12.147Z,100784.75
2022-09-15T11:55:47.971Z,100788.19
2022-09-15T11:58:33.995Z,100789.66
2022-09-15T12:01:22.561Z,100783.63
2022-09-15T12:04:02.590Z,100780.34
2022-09-15T12:06:51.186Z,100782.75
2022-09-15T12:09:20.036Z,100780.78
2022-09-15T12:11:49.675Z,100786.34
2022-09-15T12:14:40.701Z,100777.06
2022-09-15T12:17:13.489Z,100767.66
2022-09-15T12:19:49.913Z,100767.09
2022-09-15T12:22:24.069Z,100771.91
2022-09-15T12:25:03.825Z,100777.97
2022-09-15T12:27:30.521Z,100779.31
2022-09-15T12:30:00.260Z,100770.91
2022-09-15T12:32:28.747Z,100771.59
2022-09-15T12:34:59.787Z,100766.66
2022-09-15T12:37:34.396Z,100767.16
2022-09-15T12:40:02.067Z,100772.16
2022-09-15T12:42:31.395Z,100783.06
2022-09-15T12:45:09.353Z,100774.31
2022-09-15T12:47:40.622Z,100766.91
2022-09-15T12:50:22.834Z,100777.97
2022-09-15T12:53:14.617Z,100767.97
2022-09-15T12:55:55.687Z,100779.06
2022-09-15T12:58:33.212Z,100778.06
2022-09-15T13:01:23.606Z,100783.25
2022-09-15T13:03:50.827Z,100780.03
2022-09-15T13:06:20.803Z,100776.56
2022-09-15T13:08:47.390Z,100777.56
2022-09-15T13:11:23.111Z,100785.94
2022-09-15T13:13:58.745Z,100786.59
2022-09-15T13:16:34.610Z,100780.69
2022-09-15T13:19:14.003Z,100793.41
2022-09-15T13:21:45.043Z,100791.75
2022-09-15T13:24:21.591Z,100784.50
2022-09-15T13:26:52.986Z,100791.84
2022-09-15T13:29:21.098Z,100798.22
2022-09-15T13:32:08.005Z,100804.44
2022-09-15T13:35:13.205Z,100808.28
2022-09-15T13:38:16.956Z,100811.03
2022-09-15T13:41:23.470Z,100814.47
2022-09-15T13:44:18.107Z,100805.47
2022-09-15T13:47:10.632Z,100810.00
2022-09-15T13:49:37.838Z,100805.81
2022-09-15T13:52:22.155Z,100807.56
2022-09-15T13:55:26.282Z,100801.28
2022-09-15T14:01:05.825Z,100796.28
2022-09-15T14:03:50.650Z,100793.94
2022-09-15T14:06:30.213Z,100796.47
2022-09-15T14:09:02.074Z,100791.59
2022-09-15T14:11:31.330Z,100788.94
2022-09-15T14:14:00.763Z,100797.63
2022-09-15T14:16:29.876Z,100799.38
2022-09-15T14:18:58.624Z,100790.41
2022-09-15T14:21:33.906Z,100801.34
2022-09-15T14:24:14.590Z,100794.59
2022-09-15T14:26:41.427Z,100803.94
2022-09-15T14:29:18.938Z,100800.34
2022-09-15T14:31:45.793Z,100795.03
2022-09-15T14:34:20.705Z,100806.81
2022-09-15T14:37:04.332Z,100806.31
2022-09-15T14:39:31.332Z,100803.94
2022-09-15T14:47:28.898Z,100809.00
2022-09-15T14:50:21.512Z,100813.66
2022-09-15T14:53:08.636Z,100816.44
2022-09-15T14:55:46.418Z,100826.06
2022-09-15T14:58:20.966Z,100828.22
2022-09-15T15:01:03.720Z,100828.13
2022-09-15T15:03:56.560Z,100838.84
2022-09-15T15:06:32.430Z,100838.31
2022-09-15T15:09:21.566Z,100853.53
2022-09-15T15:11:53.086Z,100849.53
2022-09-15T15:14:19.993Z,100846.44
2022-09-15T15:16:58.938Z,100843.63
2022-09-15T15:19:40.733Z,100845.06
2022-09-15T15:22:16.629Z,100845.06
2022-09-15T15:24:46.207Z,100850.22
2022-09-15T15:27:26.057Z,100845.03
2022-09-15T15:29:52.883Z,100844.56
2022-09-15T15:32:25.092Z,100842.72
2022-09-15T15:35:00.842Z,100841.22
2022-09-15T15:37:34.329Z,100847.91
2022-09-15T15:40:02.025Z,100847.09
2022-09-15T15:42:29.492Z,100839.94
2022-09-15T15:45:02.957Z,100850.41
2022-09-15T15:47:35.686Z,100859.84
2022-09-15T15:50:14.062Z,100854.19
2022-09-15T15:52:42.232Z,100851.91
2022-09-15T15:55:13.732Z,100853.63
2022-09-15T15:57:40.928Z,100849.31
2022-09-15T16:00:16.620Z,100860.25
2022-09-15T16:02:47.215Z,100853.84
2022-09-15T16:05:14.422Z,100854.09
2022-09-15T16:07:44.636Z,100847.97
2022-09-15T16:10:19.416Z,100863.09
2022-09-15T16:12:46.047Z,100866.41
2022-09-15T16:15:18.527Z,100866.66
2022-09-15T16:17:47.058Z,100876.88
2022-09-15T16:20:19.632Z,100863.56
2022-09-15T16:22:46.757Z,100869.31
2022-09-15T16:25:15.925Z,100856.00
2022-09-15T16:27:42.539Z,100843.03
2022-09-15T16:30:12.014Z,100846.88
2022-09-15T16:32:40.468Z,100849.97
2022-09-15T16:35:39.939Z,100859.81
2022-09-15T16:38:08.128Z,100847.97
2022-09-15T16:40:36.980Z,100838.88
2022-09-15T16:43:09.089Z,100851.59
2022-09-15T16:45:40.526Z,100848.47
2022-09-15T16:48:09.464Z,100850.06
2022-09-15T16:50:37.828Z,100858.09
2022-09-15T16:53:06.757Z,100852.22
2022-09-15T16:55:48.530Z,100851.00
2022-09-15T16:58:16.385Z,100853.09
2022-09-15T17:00:45.191Z,100860.81
2022-09-15T17:03:16.462Z,100849.19
2022-09-15T17:05:49.973Z,100856.16
2022-09-15T17:08:18.865Z,100850.25
2022-09-15T17:10:46.970Z,100852.94
2022-09-15T17:13:20.455Z,100851.59
2022-09-15T17:15:47.288Z,100849.41
2022-09-15T17:18:15.572Z,100847.44
2022-09-15T17:20:43.825Z,100855.78
2022-09-15T17:23:28.594Z,100853.66
2022-09-15T17:25:59.938Z,100843.91
2022-09-15T17:28:31.702Z,100858.13
2022-09-15T17:31:04.672Z,100855.63
2022-09-15T17:33:32.762Z,100855.34
2022-09-15T17:36:00.311Z,100854.53
2022-09-15T17:38:27.169Z,100864.66
2022-09-15T17:40:57.665Z,100866.19
2022-09-15T17:43:27.352Z,100860.19
2022-09-15T17:45:55.326Z,100862.41
2022-09-15T17:48:22.567Z,100860.94
2022-09-15T17:50:50.299Z,100857.84
2022-09-15T17:53:26.887Z,100878.09
2022-09-15T17:55:55.128Z,100864.53
2022-09-15T17:58:23.391Z,100862.84
2022-09-15T18:00:50.494Z,100879.03
2022-09-15T18:03:29.000Z,100879.56
2022-09-15T18:05:58.411Z,100872.09
2022-09-15T18:08:25.977Z,100872.44
2022-09-15T18:10:52.767Z,100869.34
2022-09-15T18:13:22.187Z,100884.41
2022-09-15T18:15:49.507Z,100869.13
2022-09-15T18:18:21.405Z,100879.28
2022-09-15T18:20:49.872Z,100884.31
2022-09-15T18:23:18.781Z,100879.53
2022-09-15T18:25:47.156Z,100883.78
2022-09-15T18:28:15.422Z,100880.50
2022-09-15T18:30:45.118Z,100892.50
2022-09-15T18:33:20.304Z,100884.50
2022-09-15T18:35:53.961Z,100887.91
2022-09-15T18:38:21.762Z,100900.56
2022-09-15T18:40:53.295Z,100893.75
2022-09-15T18:43:21.306Z,100901.31
2022-09-15T18:45:48.380Z,100900.31
2022-09-15T18:48:15.459Z,100894.63
2022-09-15T18:50:44.662Z,100892.53
2022-09-15T18:53:12.258Z,100894.38
2022-09-15T18:55:42.076Z,100898.00
2022-09-15T18:58:09.418Z,100906.00
2022-09-15T19:00:36.163Z,100912.13
2022-09-15T19:03:05.533Z,100904.19
2022-09-15T19:05:32.488Z,100904.56
2022-09-15T19:07:59.206Z,100905.03
2022-09-15T19:10:26.816Z,100911.97
2022-09-15T19:12:54.342Z,100912.03
2022-09-15T19:15:24.518Z,100915.44
2022-09-15T19:17:51.661Z,100910.66
2022-09-15T19:20:18.619Z,100909.94
2022-09-15T19:22:46.069Z,100923.97
2022-09-15T19:25:13.445Z,100917.94
2022-09-15T19:27:40.668Z,100921.53
2022-09-15T19:30:09.960Z,100922.59
2022-09-15T19:32:38.244Z,100916.94
2022-09-15T19:35:05.367Z,100923.06
2022-09-15T19:37:35.452Z,100918.81
2022-09-15T19:40:03.509Z,100916.81
2022-09-15T19:42:30.288Z,100916.03
2022-09-15T19:44:57.267Z,100919.88
2022-09-15T19:47:24.532Z,100921.09
2022-09-15T19:49:52.018Z,100923.50
2022-09-15T19:52:20.110Z,100934.44
2022-09-15T19:54:47.796Z,100937.88
2022-09-15T19:57:14.870Z,100941.13
2022-09-15T19:59:41.638Z,100935.44
2022-09-15T20:02:10.384Z,100939.66
2022-09-15T20:04:38.970Z,100935.19
2022-09-15T20:07:05.980Z,100931.97
2022-09-15T20:09:33.275Z,100924.28
2022-09-15T20:12:03.222Z,100929.13
2022-09-15T20:14:31.498Z,100931.91
2022-09-15T20:17:01.099Z,100935.56
2022-09-15T20:19:28.656Z,100946.84
2022-09-15T20:21:55.761Z,100944.00
2022-09-15T20:24:23.894Z,100956.56
2022-09-15T20:26:51.655Z,100949.72
2022-09-15T20:29:19.435Z,100951.78
2022-09-15T20:31:46.331Z,100955.63
2022-09-15T20:34:13.092Z,100949.75
2022-09-15T20:36:40.319Z,100950.56
2022-09-15T20:39:13.467Z,100956.06
2022-09-15T20:41:44.839Z,100957.28
2022-09-15T20:44:11.855Z,100964.94
2022-09-15T20:46:38.552Z,100970.63
2022-09-15T20:49:08.395Z,100949.94
2022-09-15T20:51:35.455Z,100957.28
2022-09-15T20:54:04.936Z,100945.69
2022-09-15T20:56:35.352Z,100935.19
2022-09-15T20:59:04.469Z,100923.25
2022-09-15T21:01:37.031Z,100939.66
2022-09-15T21:04:05.146Z,100939.63
2022-09-15T21:06:32.476Z,100943.88
2022-09-15T21:09:00.146Z,100948.13
2022-09-15T21:11:28.169Z,100950.34
2022-09-15T21:13:55.947Z,100942.06
2022-09-15T21:16:25.839Z,100948.94
2022-09-15T21:18:53.209Z,100940.28
2022-09-15T21:21:31.785Z,100937.66
2022-09-15T21:24:03.584Z,100947.34
2022-09-15T21:26:36.190Z,100956.25
2022-09-15T21:29:02.894Z,100940.88
2022-09-15T21:31:32.560Z,100944.09
2022-09-15T21:34:00.171Z,100932.38
2022-09-15T21:36:29.556Z,100945.34
2022-09-15T21:38:59.445Z,100943.56
2022-09-15T21:41:30.282Z,100946.16
2022-09-15T21:43:59.034Z,100946.38
2022-09-15T21:46:28.353Z,100952.81
2022-09-15T21:48:57.599Z,100961.09
2022-09-15T21:51:26.253Z,100951.78
2022-09-15T21:53:54.405Z,100950.50
2022-09-15T21:56:22.467Z,100952.28
2022-09-15T21:58:49.383Z,100953.69
2022-09-15T22:01:23.371Z,100953.66
2022-09-15T22:03:55.925Z,100952.63
2022-09-15T22:06:27.802Z,100958.84
2022-09-15T22:08:55.376Z,100964.47
2022-09-15T22:11:23.240Z,100966.50
2022-09-15T22:13:50.769Z,100965.63
2022-09-15T22:16:20.059Z,100968.91
2022-09-15T22:18:47.577Z,100976.00
2022-09-15T22:21:17.458Z,100970.94
2022-09-15T22:23:45.597Z,100965.69
2022-09-15T22:26:21.427Z,100964.47
2022-09-15T22:28:48.535Z,100957.81
2022-09-15T22:31:18.044Z,100960.63
2022-09-15T22:33:45.459Z,100949.47
2022-09-15T22:36:32.572Z,100954.03
2022-09-15T22:39:06.689Z,100954.25
2022-09-15T22:41:39.254Z,100963.53
2022-09-15T22:44:07.394Z,100954.72
2022-09-15T22:46:34.689Z,100964.06
2022-09-15T22:49:02.236Z,100954.78
2022-09-15T22:51:29.129Z,100967.69
2022-09-15T22:53:56.881Z,100957.63
2022-09-15T22:56:25.937Z,100964.59
2022-09-15T22:58:53.152Z,100962.41
2022-09-15T23:01:25.664Z,100968.75
2022-09-15T23:04:02.510Z,100968.34
2022-09-15T23:06:32.106Z,100962.69
2022-09-15T23:09:03.456Z,100970.38
2022-09-15T23:11:34.055Z,100966.97
2022-09-15T23:14:00.759Z,100968.34
2022-09-15T23:16:31.465Z,100946.53
2022-09-15T23:18:58.489Z,100965.94
2022-09-15T23:21:28.300Z,100954.84
2022-09-15T23:23:55.139Z,100962.31
2022-09-15T23:26:24.025Z,100953.25
2022-09-15T23:28:50.840Z,100951.41
2022-09-15T23:31:20.978Z,100948.78
2022-09-15T23:33:48.345Z,100946.97
2022-09-15T23:36:19.590Z,100945.56
2022-09-15T23:38:47.757Z,100940.91
2022-09-15T23:41:15.840Z,100940.91
2022-09-15T23:43:42.557Z,100934.00
2022-09-15T23:46:30.675Z,100940.91
2022-09-15T23:49:24.858Z,100936.84
2022-09-15T23:52:31.268Z,100938.88
2022-09-15T23:55:13.069Z,100935.03
2022-09-15T23:57:48.104Z,100939.69
